sensor_id;sensor_type;location;lat;lon;timestamp;P1;durP1;ratioP1;P2;durP2;ratioP2
34900;SDS011;21112;51.976;5.660;2023-03-02T00:02:02;13.30;;;5.00;;
34900;SDS011;21112;51.976;5.660;2023-03-02T00:04:32;14.20;;;5.40;;
34900;SDS011;21112;51.976;5.660;2023-03-02T00:07:01;14.13;;;4.93;;
34900;SDS011;21112;51.976;5.660;2023-03-02T00:09:28;13.25;;;5.35;;
34900;SDS011;21112;51.976;5.660;2023-03-02T00:11:55;16.10;;;5.80;;
34900;SDS011;21112;51.976;5.660;2023-03-02T00:14:21;14.57;;;5.60;;
34900;SDS011;21112;51.976;5.660;2023-03-02T00:16:48;14.80;;;6.25;;
34900;SDS011;21112;51.976;5.660;2023-03-02T00:19:14;16.00;;;6.03;;
34900;SDS011;21112;51.976;5.660;2023-03-02T00:21:42;14.57;;;5.95;;
34900;SDS011;21112;51.976;5.660;2023-03-02T00:24:13;15.90;;;6.22;;
34900;SDS011;21112;51.976;5.660;2023-03-02T00:26:42;18.45;;;6.32;;
34900;SDS011;21112;51.976;5.660;2023-03-02T00:29:26;14.23;;;5.78;;
34900;SDS011;21112;51.976;5.660;2023-03-02T00:32:27;18.17;;;6.25;;
34900;SDS011;21112;51.976;5.660;2023-03-02T00:35:05;18.00;;;6.28;;
34900;SDS011;21112;51.976;5.660;2023-03-02T00:37:43;17.95;;;7.50;;
34900;SDS011;21112;51.976;5.660;2023-03-02T00:40:24;19.02;;;7.22;;
34900;SDS011;21112;51.976;5.660;2023-03-02T00:42:56;18.80;;;8.02;;
34900;SDS011;21112;51.976;5.660;2023-03-02T00:45:28;20.02;;;7.00;;
34900;SDS011;21112;51.976;5.660;2023-03-02T00:48:05;18.90;;;7.55;;
34900;SDS011;21112;51.976;5.660;2023-03-02T00:50:48;21.27;;;7.25;;
34900;SDS011;21112;51.976;5.660;2023-03-02T00:53:30;17.63;;;7.30;;
34900;SDS011;21112;51.976;5.660;2023-03-02T00:56:06;21.10;;;7.80;;
34900;SDS011;21112;51.976;5.660;2023-03-02T00:58:33;23.48;;;8.95;;
34900;SDS011;21112;51.976;5.660;2023-03-02T01:01:03;19.42;;;8.07;;
34900;SDS011;21112;51.976;5.660;2023-03-02T01:11:20;24.70;;;8.87;;
34900;SDS011;21112;51.976;5.660;2023-03-02T01:14:01;24.20;;;8.68;;
34900;SDS011;21112;51.976;5.660;2023-03-02T01:19:09;26.27;;;9.80;;
34900;SDS011;21112;51.976;5.660;2023-03-02T01:21:36;24.30;;;9.18;;
34900;SDS011;21112;51.976;5.660;2023-03-02T01:24:02;24.60;;;10.20;;
34900;SDS011;21112;51.976;5.660;2023-03-02T01:26:30;22.40;;;9.18;;
34900;SDS011;21112;51.976;5.660;2023-03-02T01:28:57;27.17;;;9.47;;
34900;SDS011;21112;51.976;5.660;2023-03-02T01:31:24;22.45;;;9.02;;
34900;SDS011;21112;51.976;5.660;2023-03-02T01:33:51;23.55;;;9.27;;
34900;SDS011;21112;51.976;5.660;2023-03-02T01:36:18;23.75;;;9.23;;
34900;SDS011;21112;51.976;5.660;2023-03-02T01:38:44;28.10;;;10.18;;
34900;SDS011;21112;51.976;5.660;2023-03-02T01:41:11;24.25;;;9.60;;
34900;SDS011;21112;51.976;5.660;2023-03-02T01:43:39;24.25;;;9.57;;
34900;SDS011;21112;51.976;5.660;2023-03-02T01:46:06;30.67;;;10.02;;
34900;SDS011;21112;51.976;5.660;2023-03-02T01:48:36;29.08;;;10.32;;
34900;SDS011;21112;51.976;5.660;2023-03-02T01:51:06;27.83;;;10.40;;
34900;SDS011;21112;51.976;5.660;2023-03-02T01:53:33;25.83;;;10.90;;
34900;SDS011;21112;51.976;5.660;2023-03-02T01:56:00;31.55;;;11.13;;
34900;SDS011;21112;51.976;5.660;2023-03-02T01:58:27;28.15;;;10.23;;
34900;SDS011;21112;51.976;5.660;2023-03-02T02:00:58;28.33;;;9.98;;
34900;SDS011;21112;51.976;5.660;2023-03-02T02:03:25;29.10;;;10.00;;
34900;SDS011;21112;51.976;5.660;2023-03-02T02:05:54;25.48;;;9.52;;
34900;SDS011;21112;51.976;5.660;2023-03-02T02:08:25;32.13;;;10.43;;
34900;SDS011;21112;51.976;5.660;2023-03-02T02:10:51;27.13;;;10.40;;
34900;SDS011;21112;51.976;5.660;2023-03-02T02:13:18;24.83;;;9.77;;
34900;SDS011;21112;51.976;5.660;2023-03-02T02:15:45;26.02;;;10.20;;
34900;SDS011;21112;51.976;5.660;2023-03-02T02:18:13;26.95;;;10.45;;
34900;SDS011;21112;51.976;5.660;2023-03-02T02:20:40;28.52;;;10.15;;
34900;SDS011;21112;51.976;5.660;2023-03-02T02:23:18;29.70;;;10.93;;
34900;SDS011;21112;51.976;5.660;2023-03-02T02:28:45;29.08;;;9.32;;
34900;SDS011;21112;51.976;5.660;2023-03-02T02:31:13;29.50;;;10.98;;
34900;SDS011;21112;51.976;5.660;2023-03-02T02:33:41;30.08;;;10.02;;
34900;SDS011;21112;51.976;5.660;2023-03-02T02:36:12;24.47;;;9.37;;
34900;SDS011;21112;51.976;5.660;2023-03-02T02:38:40;27.55;;;9.90;;
34900;SDS011;21112;51.976;5.660;2023-03-02T02:41:07;33.08;;;10.77;;
34900;SDS011;21112;51.976;5.660;2023-03-02T02:43:36;25.75;;;9.57;;
34900;SDS011;21112;51.976;5.660;2023-03-02T02:46:04;26.75;;;10.00;;
34900;SDS011;21112;51.976;5.660;2023-03-02T02:48:31;25.20;;;9.63;;
34900;SDS011;21112;51.976;5.660;2023-03-02T02:56:02;30.38;;;10.20;;
34900;SDS011;21112;51.976;5.660;2023-03-02T02:58:30;28.60;;;9.40;;
34900;SDS011;21112;51.976;5.660;2023-03-02T03:00:58;24.63;;;9.73;;
34900;SDS011;21112;51.976;5.660;2023-03-02T03:03:27;29.30;;;10.43;;
34900;SDS011;21112;51.976;5.660;2023-03-02T03:05:57;28.00;;;10.70;;
34900;SDS011;21112;51.976;5.660;2023-03-02T03:11:21;25.38;;;9.18;;
34900;SDS011;21112;51.976;5.660;2023-03-02T03:13:49;25.52;;;9.75;;
34900;SDS011;21112;51.976;5.660;2023-03-02T03:16:17;31.15;;;9.70;;
34900;SDS011;21112;51.976;5.660;2023-03-02T03:18:45;31.42;;;10.13;;
34900;SDS011;21112;51.976;5.660;2023-03-02T03:23:39;23.52;;;8.48;;
34900;SDS011;21112;51.976;5.660;2023-03-02T03:26:06;26.95;;;9.85;;
34900;SDS011;21112;51.976;5.660;2023-03-02T03:28:34;27.60;;;9.98;;
34900;SDS011;21112;51.976;5.660;2023-03-02T03:31:01;28.02;;;8.93;;
34900;SDS011;21112;51.976;5.660;2023-03-02T03:33:28;29.08;;;10.88;;
34900;SDS011;21112;51.976;5.660;2023-03-02T03:35:56;27.30;;;9.80;;
34900;SDS011;21112;51.976;5.660;2023-03-02T03:38:22;23.42;;;9.00;;
34900;SDS011;21112;51.976;5.660;2023-03-02T03:40:49;29.25;;;9.82;;
34900;SDS011;21112;51.976;5.660;2023-03-02T03:43:15;27.73;;;9.88;;
34900;SDS011;21112;51.976;5.660;2023-03-02T03:45:42;27.88;;;9.93;;
34900;SDS011;21112;51.976;5.660;2023-03-02T03:48:08;32.88;;;10.30;;
34900;SDS011;21112;51.976;5.660;2023-03-02T03:50:34;27.00;;;9.63;;
34900;SDS011;21112;51.976;5.660;2023-03-02T03:53:02;27.05;;;9.85;;
34900;SDS011;21112;51.976;5.660;2023-03-02T03:55:29;22.93;;;8.90;;
34900;SDS011;21112;51.976;5.660;2023-03-02T03:57:55;24.65;;;8.32;;
34900;SDS011;21112;51.976;5.660;2023-03-02T04:00:22;27.13;;;9.40;;
34900;SDS011;21112;51.976;5.660;2023-03-02T04:02:49;26.40;;;9.57;;
34900;SDS011;21112;51.976;5.660;2023-03-02T04:05:15;28.23;;;9.80;;
34900;SDS011;21112;51.976;5.660;2023-03-02T04:07:42;25.35;;;9.13;;
34900;SDS011;21112;51.976;5.660;2023-03-02T04:10:10;21.42;;;8.57;;
34900;SDS011;21112;51.976;5.660;2023-03-02T04:12:38;29.85;;;10.90;;
34900;SDS011;21112;51.976;5.660;2023-03-02T04:15:06;25.95;;;8.98;;
34900;SDS011;21112;51.976;5.660;2023-03-02T04:17:33;22.00;;;8.93;;
34900;SDS011;21112;51.976;5.660;2023-03-02T04:19:59;24.67;;;9.40;;
34900;SDS011;21112;51.976;5.660;2023-03-02T04:22:26;22.88;;;8.70;;
34900;SDS011;21112;51.976;5.660;2023-03-02T04:24:52;29.65;;;9.20;;
34900;SDS011;21112;51.976;5.660;2023-03-02T04:27:20;27.13;;;9.50;;
34900;SDS011;21112;51.976;5.660;2023-03-02T04:29:46;27.73;;;9.40;;
34900;SDS011;21112;51.976;5.660;2023-03-02T04:32:13;25.20;;;9.55;;
34900;SDS011;21112;51.976;5.660;2023-03-02T04:34:39;25.55;;;8.65;;
34900;SDS011;21112;51.976;5.660;2023-03-02T04:37:06;28.45;;;9.60;;
34900;SDS011;21112;51.976;5.660;2023-03-02T04:39:34;29.05;;;9.55;;
34900;SDS011;21112;51.976;5.660;2023-03-02T04:42:01;26.23;;;9.85;;
34900;SDS011;21112;51.976;5.660;2023-03-02T04:44:29;25.08;;;9.10;;
34900;SDS011;21112;51.976;5.660;2023-03-02T04:46:55;25.08;;;9.10;;
34900;SDS011;21112;51.976;5.660;2023-03-02T04:49:22;25.45;;;9.45;;
34900;SDS011;21112;51.976;5.660;2023-03-02T04:51:48;29.30;;;9.30;;
34900;SDS011;21112;51.976;5.660;2023-03-02T04:54:16;23.88;;;9.00;;
34900;SDS011;21112;51.976;5.660;2023-03-02T04:56:43;25.40;;;8.57;;
34900;SDS011;21112;51.976;5.660;2023-03-02T04:59:12;25.52;;;9.15;;
34900;SDS011;21112;51.976;5.660;2023-03-02T05:01:40;25.83;;;9.05;;
34900;SDS011;21112;51.976;5.660;2023-03-02T05:04:08;23.17;;;8.65;;
34900;SDS011;21112;51.976;5.660;2023-03-02T05:06:35;23.05;;;8.77;;
34900;SDS011;21112;51.976;5.660;2023-03-02T05:09:01;26.70;;;9.35;;
34900;SDS011;21112;51.976;5.660;2023-03-02T05:11:29;23.58;;;8.30;;
34900;SDS011;21112;51.976;5.660;2023-03-02T05:13:57;31.25;;;10.25;;
34900;SDS011;21112;51.976;5.660;2023-03-02T05:16:24;23.17;;;8.70;;
34900;SDS011;21112;51.976;5.660;2023-03-02T05:18:54;25.75;;;9.48;;
34900;SDS011;21112;51.976;5.660;2023-03-02T05:21:21;27.98;;;9.20;;
34900;SDS011;21112;51.976;5.660;2023-03-02T05:23:47;23.70;;;8.68;;
34900;SDS011;21112;51.976;5.660;2023-03-02T05:26:14;23.70;;;8.88;;
34900;SDS011;21112;51.976;5.660;2023-03-02T05:28:40;29.27;;;9.20;;
34900;SDS011;21112;51.976;5.660;2023-03-02T05:31:07;23.70;;;8.77;;
34900;SDS011;21112;51.976;5.660;2023-03-02T05:33:34;25.38;;;9.32;;
34900;SDS011;21112;51.976;5.660;2023-03-02T05:36:02;25.42;;;9.32;;
34900;SDS011;21112;51.976;5.660;2023-03-02T05:38:28;27.67;;;9.48;;
34900;SDS011;21112;51.976;5.660;2023-03-02T05:40:55;27.45;;;10.15;;
34900;SDS011;21112;51.976;5.660;2023-03-02T05:43:22;27.13;;;9.02;;
34900;SDS011;21112;51.976;5.660;2023-03-02T05:45:49;24.67;;;9.18;;
34900;SDS011;21112;51.976;5.660;2023-03-02T05:48:15;26.50;;;9.63;;
34900;SDS011;21112;51.976;5.660;2023-03-02T05:50:42;26.63;;;9.07;;
34900;SDS011;21112;51.976;5.660;2023-03-02T05:53:10;23.17;;;8.35;;
34900;SDS011;21112;51.976;5.660;2023-03-02T05:55:36;25.92;;;8.60;;
34900;SDS011;21112;51.976;5.660;2023-03-02T05:58:03;24.98;;;9.43;;
34900;SDS011;21112;51.976;5.660;2023-03-02T06:00:30;25.60;;;9.35;;
34900;SDS011;21112;51.976;5.660;2023-03-02T06:02:56;36.20;;;9.52;;
34900;SDS011;21112;51.976;5.660;2023-03-02T06:05:23;25.35;;;9.07;;
34900;SDS011;21112;51.976;5.660;2023-03-02T06:07:49;24.45;;;9.10;;
34900;SDS011;21112;51.976;5.660;2023-03-02T06:10:23;27.35;;;8.73;;
34900;SDS011;21112;51.976;5.660;2023-03-02T06:12:50;23.75;;;9.20;;
34900;SDS011;21112;51.976;5.660;2023-03-02T06:15:16;27.42;;;9.68;;
34900;SDS011;21112;51.976;5.660;2023-03-02T06:17:43;32.42;;;9.60;;
34900;SDS011;21112;51.976;5.660;2023-03-02T06:20:10;30.48;;;10.00;;
34900;SDS011;21112;51.976;5.660;2023-03-02T06:22:38;29.55;;;8.85;;
34900;SDS011;21112;51.976;5.660;2023-03-02T06:25:06;24.73;;;9.20;;
34900;SDS011;21112;51.976;5.660;2023-03-02T06:27:34;26.30;;;9.05;;
34900;SDS011;21112;51.976;5.660;2023-03-02T06:32:28;23.55;;;7.90;;
34900;SDS011;21112;51.976;5.660;2023-03-02T06:34:59;27.35;;;8.98;;
34900;SDS011;21112;51.976;5.660;2023-03-02T06:37:25;24.90;;;9.10;;
34900;SDS011;21112;51.976;5.660;2023-03-02T06:39:52;25.75;;;8.52;;
34900;SDS011;21112;51.976;5.660;2023-03-02T06:42:23;29.77;;;9.30;;
34900;SDS011;21112;51.976;5.660;2023-03-02T06:44:53;23.33;;;8.90;;
34900;SDS011;21112;51.976;5.660;2023-03-02T06:47:20;29.70;;;8.63;;
34900;SDS011;21112;51.976;5.660;2023-03-02T06:49:46;28.73;;;9.48;;
34900;SDS011;21112;51.976;5.660;2023-03-02T06:52:14;26.58;;;8.82;;
34900;SDS011;21112;51.976;5.660;2023-03-02T06:54:40;27.88;;;8.40;;
34900;SDS011;21112;51.976;5.660;2023-03-02T06:57:07;28.10;;;8.95;;
34900;SDS011;21112;51.976;5.660;2023-03-02T06:59:33;23.38;;;8.40;;
34900;SDS011;21112;51.976;5.660;2023-03-02T07:02:02;27.55;;;9.10;;
34900;SDS011;21112;51.976;5.660;2023-03-02T07:04:28;24.40;;;8.23;;
34900;SDS011;21112;51.976;5.660;2023-03-02T07:06:55;27.73;;;9.35;;
34900;SDS011;21112;51.976;5.660;2023-03-02T07:09:22;21.80;;;8.02;;
34900;SDS011;21112;51.976;5.660;2023-03-02T07:11:48;26.25;;;8.55;;
34900;SDS011;21112;51.976;5.660;2023-03-02T07:14:15;32.33;;;10.32;;
34900;SDS011;21112;51.976;5.660;2023-03-02T07:19:13;19.00;;;7.03;;
34900;SDS011;21112;51.976;5.660;2023-03-02T07:21:39;27.45;;;8.55;;
34900;SDS011;21112;51.976;5.660;2023-03-02T07:24:06;25.77;;;8.32;;
34900;SDS011;21112;51.976;5.660;2023-03-02T07:26:35;24.25;;;7.93;;
34900;SDS011;21112;51.976;5.660;2023-03-02T07:29:01;23.55;;;8.57;;
34900;SDS011;21112;51.976;5.660;2023-03-02T07:31:28;27.85;;;8.40;;
34900;SDS011;21112;51.976;5.660;2023-03-02T07:36:24;21.17;;;7.07;;
34900;SDS011;21112;51.976;5.660;2023-03-02T07:38:51;21.88;;;7.80;;
34900;SDS011;21112;51.976;5.660;2023-03-02T07:41:18;25.17;;;8.90;;
34900;SDS011;21112;51.976;5.660;2023-03-02T07:43:49;29.92;;;8.70;;
34900;SDS011;21112;51.976;5.660;2023-03-02T07:46:43;25.25;;;7.90;;
34900;SDS011;21112;51.976;5.660;2023-03-02T07:49:23;25.05;;;8.55;;
34900;SDS011;21112;51.976;5.660;2023-03-02T07:51:56;24.65;;;8.68;;
34900;SDS011;21112;51.976;5.660;2023-03-02T07:54:29;22.90;;;7.53;;
34900;SDS011;21112;51.976;5.660;2023-03-02T08:02:25;26.85;;;8.38;;
34900;SDS011;21112;51.976;5.660;2023-03-02T08:39:41;23.35;;;7.05;;
34900;SDS011;21112;51.976;5.660;2023-03-02T08:42:09;25.35;;;7.55;;
34900;SDS011;21112;51.976;5.660;2023-03-02T08:44:36;26.35;;;7.70;;
34900;SDS011;21112;51.976;5.660;2023-03-02T08:47:03;21.17;;;7.28;;
34900;SDS011;21112;51.976;5.660;2023-03-02T08:49:29;23.70;;;7.60;;
34900;SDS011;21112;51.976;5.660;2023-03-02T08:52:01;19.02;;;7.07;;
34900;SDS011;21112;51.976;5.660;2023-03-02T08:54:27;23.27;;;7.72;;
34900;SDS011;21112;51.976;5.660;2023-03-02T08:56:55;23.05;;;7.35;;
34900;SDS011;21112;51.976;5.660;2023-03-02T08:59:22;23.20;;;7.00;;
34900;SDS011;21112;51.976;5.660;2023-03-02T09:01:54;25.35;;;6.88;;
34900;SDS011;21112;51.976;5.660;2023-03-02T09:04:24;21.73;;;7.93;;
34900;SDS011;21112;51.976;5.660;2023-03-02T09:06:50;19.92;;;6.47;;
34900;SDS011;21112;51.976;5.660;2023-03-02T09:09:17;21.00;;;6.43;;
34900;SDS011;21112;51.976;5.660;2023-03-02T09:11:43;23.33;;;7.82;;
34900;SDS011;21112;51.976;5.660;2023-03-02T09:14:14;28.67;;;8.18;;
34900;SDS011;21112;51.976;5.660;2023-03-02T09:16:41;21.90;;;7.32;;
34900;SDS011;21112;51.976;5.660;2023-03-02T09:19:11;19.98;;;6.90;;
34900;SDS011;21112;51.976;5.660;2023-03-02T09:21:37;24.27;;;6.78;;
34900;SDS011;21112;51.976;5.660;2023-03-02T09:24:04;21.20;;;7.72;;
34900;SDS011;21112;51.976;5.660;2023-03-02T09:26:33;22.73;;;7.57;;
34900;SDS011;21112;51.976;5.660;2023-03-02T09:29:09;19.42;;;5.95;;
34900;SDS011;21112;51.976;5.660;2023-03-02T09:31:40;20.70;;;6.68;;
34900;SDS011;21112;51.976;5.660;2023-03-02T09:34:07;21.58;;;6.78;;
34900;SDS011;21112;51.976;5.660;2023-03-02T09:36:34;20.98;;;6.63;;
34900;SDS011;21112;51.976;5.660;2023-03-02T09:39:00;20.63;;;6.93;;
34900;SDS011;21112;51.976;5.660;2023-03-02T09:41:37;19.85;;;6.55;;
34900;SDS011;21112;51.976;5.660;2023-03-02T09:44:12;21.27;;;6.68;;
34900;SDS011;21112;51.976;5.660;2023-03-02T09:46:48;20.00;;;6.32;;
34900;SDS011;21112;51.976;5.660;2023-03-02T09:49:23;18.95;;;6.68;;
34900;SDS011;21112;51.976;5.660;2023-03-02T09:51:58;20.05;;;6.75;;
34900;SDS011;21112;51.976;5.660;2023-03-02T09:54:29;18.83;;;6.68;;
34900;SDS011;21112;51.976;5.660;2023-03-02T09:59:25;22.13;;;6.00;;
34900;SDS011;21112;51.976;5.660;2023-03-02T10:01:57;21.77;;;6.88;;
34900;SDS011;21112;51.976;5.660;2023-03-02T10:04:35;18.58;;;6.30;;
34900;SDS011;21112;51.976;5.660;2023-03-02T10:07:09;20.70;;;6.85;;
34900;SDS011;21112;51.976;5.660;2023-03-02T10:09:38;17.30;;;5.70;;
34900;SDS011;21112;51.976;5.660;2023-03-02T10:12:14;18.92;;;6.60;;
34900;SDS011;21112;51.976;5.660;2023-03-02T10:14:46;18.35;;;5.95;;
34900;SDS011;21112;51.976;5.660;2023-03-02T10:17:27;18.95;;;6.05;;
34900;SDS011;21112;51.976;5.660;2023-03-02T10:20:02;20.98;;;6.93;;
34900;SDS011;21112;51.976;5.660;2023-03-02T10:22:31;24.77;;;6.35;;
34900;SDS011;21112;51.976;5.660;2023-03-02T10:25:03;23.27;;;6.63;;
34900;SDS011;21112;51.976;5.660;2023-03-02T10:27:37;22.83;;;5.53;;
34900;SDS011;21112;51.976;5.660;2023-03-02T10:30:05;15.13;;;5.10;;
34900;SDS011;21112;51.976;5.660;2023-03-02T10:32:41;19.38;;;6.40;;
34900;SDS011;21112;51.976;5.660;2023-03-02T10:35:11;22.52;;;6.15;;
34900;SDS011;21112;51.976;5.660;2023-03-02T10:37:40;18.58;;;6.63;;
34900;SDS011;21112;51.976;5.660;2023-03-02T10:40:08;22.48;;;6.82;;
34900;SDS011;21112;51.976;5.660;2023-03-02T10:42:36;20.45;;;6.60;;
34900;SDS011;21112;51.976;5.660;2023-03-02T10:45:07;21.23;;;6.90;;
34900;SDS011;21112;51.976;5.660;2023-03-02T10:50:16;18.17;;;6.00;;
34900;SDS011;21112;51.976;5.660;2023-03-02T10:52:47;18.48;;;5.95;;
34900;SDS011;21112;51.976;5.660;2023-03-02T10:55:14;19.00;;;5.85;;
34900;SDS011;21112;51.976;5.660;2023-03-02T10:57:41;20.85;;;6.43;;
34900;SDS011;21112;51.976;5.660;2023-03-02T11:00:13;14.43;;;5.65;;
34900;SDS011;21112;51.976;5.660;2023-03-02T11:02:47;19.50;;;6.00;;
34900;SDS011;21112;51.976;5.660;2023-03-02T11:05:23;21.45;;;6.50;;
34900;SDS011;21112;51.976;5.660;2023-03-02T11:07:52;20.35;;;6.00;;
34900;SDS011;21112;51.976;5.660;2023-03-02T11:10:19;21.13;;;6.07;;
34900;SDS011;21112;51.976;5.660;2023-03-02T11:12:46;16.88;;;5.82;;
34900;SDS011;21112;51.976;5.660;2023-03-02T11:15:15;18.13;;;6.43;;
34900;SDS011;21112;51.976;5.660;2023-03-02T11:17:43;18.55;;;5.95;;
34900;SDS011;21112;51.976;5.660;2023-03-02T11:20:15;16.55;;;5.50;;
34900;SDS011;21112;51.976;5.660;2023-03-02T11:22:46;18.97;;;5.93;;
34900;SDS011;21112;51.976;5.660;2023-03-02T11:25:15;14.80;;;5.68;;
34900;SDS011;21112;51.976;5.660;2023-03-02T11:27:46;17.85;;;5.72;;
34900;SDS011;21112;51.976;5.660;2023-03-02T11:30:18;16.35;;;5.20;;
34900;SDS011;21112;51.976;5.660;2023-03-02T11:32:48;14.77;;;5.35;;
34900;SDS011;21112;51.976;5.660;2023-03-02T11:35:20;17.60;;;5.40;;
34900;SDS011;21112;51.976;5.660;2023-03-02T11:38:00;15.45;;;5.00;;
34900;SDS011;21112;51.976;5.660;2023-03-02T11:40:30;12.75;;;5.03;;
34900;SDS011;21112;51.976;5.660;2023-03-02T11:42:58;14.77;;;4.88;;
34900;SDS011;21112;51.976;5.660;2023-03-02T11:45:40;16.85;;;5.50;;
34900;SDS011;21112;51.976;5.660;2023-03-02T11:48:10;14.02;;;5.07;;
34900;SDS011;21112;51.976;5.660;2023-03-02T11:50:39;15.80;;;5.60;;
34900;SDS011;21112;51.976;5.660;2023-03-02T11:53:13;17.73;;;6.18;;
34900;SDS011;21112;51.976;5.660;2023-03-02T11:55:44;16.00;;;5.88;;
34900;SDS011;21112;51.976;5.660;2023-03-02T11:58:16;15.75;;;5.53;;
34900;SDS011;21112;51.976;5.660;2023-03-02T12:00:45;15.98;;;5.00;;
34900;SDS011;21112;51.976;5.660;2023-03-02T12:06:01;13.00;;;4.13;;
34900;SDS011;21112;51.976;5.660;2023-03-02T12:08:31;16.75;;;5.13;;
34900;SDS011;21112;51.976;5.660;2023-03-02T12:10:59;19.77;;;5.70;;
34900;SDS011;21112;51.976;5.660;2023-03-02T12:13:31;17.83;;;5.50;;
34900;SDS011;21112;51.976;5.660;2023-03-02T12:15:58;18.17;;;5.43;;
34900;SDS011;21112;51.976;5.660;2023-03-02T12:18:27;14.65;;;5.68;;
34900;SDS011;21112;51.976;5.660;2023-03-02T12:21:03;13.80;;;5.07;;
34900;SDS011;21112;51.976;5.660;2023-03-02T12:23:32;13.13;;;5.40;;
34900;SDS011;21112;51.976;5.660;2023-03-02T12:26:01;15.20;;;5.38;;
34900;SDS011;21112;51.976;5.660;2023-03-02T12:28:33;15.13;;;5.60;;
34900;SDS011;21112;51.976;5.660;2023-03-02T12:31:04;16.58;;;5.55;;
34900;SDS011;21112;51.976;5.660;2023-03-02T12:33:36;16.38;;;5.28;;
34900;SDS011;21112;51.976;5.660;2023-03-02T12:36:05;13.77;;;5.57;;
34900;SDS011;21112;51.976;5.660;2023-03-02T12:38:39;14.60;;;5.32;;
34900;SDS011;21112;51.976;5.660;2023-03-02T12:46:46;13.30;;;4.90;;
34900;SDS011;21112;51.976;5.660;2023-03-02T12:49:16;12.23;;;5.20;;
34900;SDS011;21112;51.976;5.660;2023-03-02T12:51:54;15.05;;;5.10;;
34900;SDS011;21112;51.976;5.660;2023-03-02T12:54:27;13.68;;;5.35;;
34900;SDS011;21112;51.976;5.660;2023-03-02T12:57:01;14.73;;;5.30;;
34900;SDS011;21112;51.976;5.660;2023-03-02T12:59:28;14.80;;;4.85;;
34900;SDS011;21112;51.976;5.660;2023-03-02T13:02:06;15.10;;;5.88;;
34900;SDS011;21112;51.976;5.660;2023-03-02T13:04:38;12.82;;;5.00;;
34900;SDS011;21112;51.976;5.660;2023-03-02T13:07:05;14.15;;;6.03;;
34900;SDS011;21112;51.976;5.660;2023-03-02T13:09:47;13.90;;;4.93;;
34900;SDS011;21112;51.976;5.660;2023-03-02T13:12:13;15.73;;;5.75;;
34900;SDS011;21112;51.976;5.660;2023-03-02T13:14:46;12.30;;;5.32;;
34900;SDS011;21112;51.976;5.660;2023-03-02T13:17:20;17.17;;;5.28;;
34900;SDS011;21112;51.976;5.660;2023-03-02T13:19:50;16.42;;;5.38;;
34900;SDS011;21112;51.976;5.660;2023-03-02T13:22:21;12.98;;;5.15;;
34900;SDS011;21112;51.976;5.660;2023-03-02T13:24:50;16.63;;;5.43;;
34900;SDS011;21112;51.976;5.660;2023-03-02T13:27:21;13.07;;;5.38;;
34900;SDS011;21112;51.976;5.660;2023-03-02T13:30:06;13.55;;;5.20;;
34900;SDS011;21112;51.976;5.660;2023-03-02T13:32:37;15.02;;;5.40;;
34900;SDS011;21112;51.976;5.660;2023-03-02T13:35:14;13.05;;;5.40;;
34900;SDS011;21112;51.976;5.660;2023-03-02T13:37:41;15.95;;;6.35;;
34900;SDS011;21112;51.976;5.660;2023-03-02T13:40:36;14.32;;;5.10;;
34900;SDS011;21112;51.976;5.660;2023-03-02T13:43:03;13.98;;;5.47;;
34900;SDS011;21112;51.976;5.660;2023-03-02T13:45:50;12.52;;;5.00;;
34900;SDS011;21112;51.976;5.660;2023-03-02T13:48:18;12.82;;;5.07;;
34900;SDS011;21112;51.976;5.660;2023-03-02T13:50:52;10.88;;;5.18;;
34900;SDS011;21112;51.976;5.660;2023-03-02T13:53:21;14.75;;;5.68;;
34900;SDS011;21112;51.976;5.660;2023-03-02T13:55:57;12.57;;;4.93;;
34900;SDS011;21112;51.976;5.660;2023-03-02T13:58:34;14.18;;;5.65;;
34900;SDS011;21112;51.976;5.660;2023-03-02T14:01:05;14.98;;;5.35;;
34900;SDS011;21112;51.976;5.660;2023-03-02T14:03:39;15.20;;;5.75;;
34900;SDS011;21112;51.976;5.660;2023-03-02T14:06:10;14.52;;;5.55;;
34900;SDS011;21112;51.976;5.660;2023-03-02T14:08:37;14.15;;;5.18;;
34900;SDS011;21112;51.976;5.660;2023-03-02T14:11:09;13.18;;;5.07;;
34900;SDS011;21112;51.976;5.660;2023-03-02T14:13:57;11.90;;;5.05;;
34900;SDS011;21112;51.976;5.660;2023-03-02T14:16:26;11.88;;;5.03;;
34900;SDS011;21112;51.976;5.660;2023-03-02T14:18:52;15.65;;;4.97;;
34900;SDS011;21112;51.976;5.660;2023-03-02T14:21:25;13.43;;;5.15;;
34900;SDS011;21112;51.976;5.660;2023-03-02T14:23:51;11.13;;;4.97;;
34900;SDS011;21112;51.976;5.660;2023-03-02T14:26:30;12.90;;;5.20;;
34900;SDS011;21112;51.976;5.660;2023-03-02T14:28:59;11.73;;;4.97;;
34900;SDS011;21112;51.976;5.660;2023-03-02T14:31:29;14.10;;;4.82;;
34900;SDS011;21112;51.976;5.660;2023-03-02T14:34:01;14.75;;;4.85;;
34900;SDS011;21112;51.976;5.660;2023-03-02T14:36:28;11.93;;;4.70;;
34900;SDS011;21112;51.976;5.660;2023-03-02T14:38:59;13.45;;;4.47;;
34900;SDS011;21112;51.976;5.660;2023-03-02T14:41:36;13.63;;;4.55;;
34900;SDS011;21112;51.976;5.660;2023-03-02T14:44:08;10.27;;;4.43;;
34900;SDS011;21112;51.976;5.660;2023-03-02T14:46:35;11.85;;;4.35;;
34900;SDS011;21112;51.976;5.660;2023-03-02T14:49:02;12.20;;;4.57;;
34900;SDS011;21112;51.976;5.660;2023-03-02T14:51:31;12.75;;;4.85;;
34900;SDS011;21112;51.976;5.660;2023-03-02T14:54:00;10.65;;;4.55;;
34900;SDS011;21112;51.976;5.660;2023-03-02T14:56:28;12.20;;;4.22;;
34900;SDS011;21112;51.976;5.660;2023-03-02T14:58:56;11.75;;;4.47;;
34900;SDS011;21112;51.976;5.660;2023-03-02T15:01:24;14.65;;;5.20;;
34900;SDS011;21112;51.976;5.660;2023-03-02T15:03:54;14.82;;;5.90;;
34900;SDS011;21112;51.976;5.660;2023-03-02T15:06:26;12.63;;;4.90;;
34900;SDS011;21112;51.976;5.660;2023-03-02T15:08:55;14.70;;;5.03;;
34900;SDS011;21112;51.976;5.660;2023-03-02T15:11:24;11.63;;;4.75;;
34900;SDS011;21112;51.976;5.660;2023-03-02T15:13:53;13.45;;;5.38;;
34900;SDS011;21112;51.976;5.660;2023-03-02T15:16:22;10.90;;;4.78;;
34900;SDS011;21112;51.976;5.660;2023-03-02T15:18:49;11.00;;;4.50;;
34900;SDS011;21112;51.976;5.660;2023-03-02T15:21:20;11.80;;;4.97;;
34900;SDS011;21112;51.976;5.660;2023-03-02T15:23:47;13.50;;;4.88;;
34900;SDS011;21112;51.976;5.660;2023-03-02T15:29:05;12.25;;;4.68;;
34900;SDS011;21112;51.976;5.660;2023-03-02T15:31:36;12.43;;;4.68;;
34900;SDS011;21112;51.976;5.660;2023-03-02T15:34:05;11.98;;;4.90;;
34900;SDS011;21112;51.976;5.660;2023-03-02T15:36:32;11.85;;;5.18;;
34900;SDS011;21112;51.976;5.660;2023-03-02T15:38:59;11.02;;;4.90;;
34900;SDS011;21112;51.976;5.660;2023-03-02T15:41:25;12.57;;;4.85;;
34900;SDS011;21112;51.976;5.660;2023-03-02T15:43:53;11.90;;;4.83;;
34900;SDS011;21112;51.976;5.660;2023-03-02T15:46:28;12.45;;;5.10;;
34900;SDS011;21112;51.976;5.660;2023-03-02T15:57:22;12.88;;;5.13;;
34900;SDS011;21112;51.976;5.660;2023-03-02T15:59:59;13.32;;;5.28;;
34900;SDS011;21112;51.976;5.660;2023-03-02T16:02:31;11.43;;;4.72;;
34900;SDS011;21112;51.976;5.660;2023-03-02T16:04:58;10.43;;;4.47;;
34900;SDS011;21112;51.976;5.660;2023-03-02T16:07:28;11.25;;;5.13;;
34900;SDS011;21112;51.976;5.660;2023-03-02T16:09:56;10.80;;;4.97;;
34900;SDS011;21112;51.976;5.660;2023-03-02T16:12:27;11.52;;;5.13;;
34900;SDS011;21112;51.976;5.660;2023-03-02T16:14:53;10.40;;;4.50;;
34900;SDS011;21112;51.976;5.660;2023-03-02T16:17:21;12.32;;;5.38;;
34900;SDS011;21112;51.976;5.660;2023-03-02T16:19:50;14.10;;;4.95;;
34900;SDS011;21112;51.976;5.660;2023-03-02T16:22:22;15.38;;;5.95;;
34900;SDS011;21112;51.976;5.660;2023-03-02T16:24:55;12.55;;;5.43;;